sensor_id;sensor_type;location;lat;lon;timestamp;pressure;altitude;pressure_sealevel;temperature;humidity
64827;BME280;51265;53.972;12.286;2022-08-05T00:00:48;100587.91;;;18.74;100.00
64827;BME280;51265;53.972;12.286;2022-08-05T00:03:14;100583.25;;;18.78;100.00
64827;BME280;51265;53.972;12.286;2022-08-05T00:05:40;100597.63;;;18.80;100.00
64827;BME280;51265;53.972;12.286;2022-08-05T00:08:08;100594.84;;;18.80;100.00
64827;BME280;51265;53.972;12.286;2022-08-05T00:10:34;100595.31;;;18.82;100.00
64827;BME280;51265;53.972;12.286;2022-08-05T00:13:00;100603.69;;;18.82;100.00
64827;BME280;51265;53.972;12.286;2022-08-05T00:15:26;100609.72;;;18.84;100.00
64827;BME280;51265;53.972;12.286;2022-08-05T00:17:52;100602.50;;;18.83;100.00
64827;BME280;51265;53.972;12.286;2022-08-05T00:20:18;100606.47;;;18.82;100.00
64827;BME280;51265;53.972;12.286;2022-08-05T00:22:44;100611.59;;;18.80;100.00
64827;BME280;51265;53.972;12.286;2022-08-05T00:25:10;100608.78;;;18.80;100.00
64827;BME280;51265;53.972;12.286;2022-08-05T00:27:36;100602.28;;;18.76;100.00
64827;BME280;51265;53.972;12.286;2022-08-05T00:30:03;100592.31;;;18.75;100.00
64827;BME280;51265;53.972;12.286;2022-08-05T00:32:30;100585.56;;;18.76;100.00
64827;BME280;51265;53.972;12.286;2022-08-05T00:34:56;100576.03;;;18.77;100.00
64827;BME280;51265;53.972;12.286;2022-08-05T00:37:22;100582.44;;;18.78;100.00
64827;BME280;51265;53.972;12.286;2022-08-05T00:39:48;100573.16;;;18.74;100.00
64827;BME280;51265;53.972;12.286;2022-08-05T00:42:14;100579.06;;;18.72;100.00
64827;BME280;51265;53.972;12.286;2022-08-05T00:44:42;100568.28;;;18.71;100.00
64827;BME280;51265;53.972;12.286;2022-08-05T00:47:08;100566.97;;;18.68;100.00
64827;BME280;51265;53.972;12.286;2022-08-05T00:49:34;100566.97;;;18.68;100.00
64827;BME280;51265;53.972;12.286;2022-08-05T00:52:00;100555.00;;;18.67;100.00
64827;BME280;51265;53.972;12.286;2022-08-05T00:54:26;100558.16;;;18.66;100.00
64827;BME280;51265;53.972;12.286;2022-08-05T00:56:52;100567.91;;;18.60;100.00
64827;BME280;51265;53.972;12.286;2022-08-05T00:59:18;100569.34;;;18.54;100.00
64827;BME280;51265;53.972;12.286;2022-08-05T01:01:44;100564.03;;;18.49;100.00
64827;BME280;51265;53.972;12.286;2022-08-05T01:04:09;100570.31;;;18.46;100.00
64827;BME280;51265;53.972;12.286;2022-08-05T01:06:35;100577.06;;;18.45;100.00
64827;BME280;51265;53.972;12.286;2022-08-05T01:09:02;100575.88;;;18.46;100.00
64827;BME280;51265;53.972;12.286;2022-08-05T01:11:36;100583.88;;;18.47;100.00
64827;BME280;51265;53.972;12.286;2022-08-05T01:14:10;100591.91;;;18.49;100.00
64827;BME280;51265;53.972;12.286;2022-08-05T01:17:31;100592.84;;;18.53;100.00
64827;BME280;51265;53.972;12.286;2022-08-05T01:20:30;100585.59;;;18.52;100.00
64827;BME280;51265;53.972;12.286;2022-08-05T01:26:39;100594.81;;;18.52;100.00
64827;BME280;51265;53.972;12.286;2022-08-05T01:29:23;100595.63;;;18.53;100.00
64827;BME280;51265;53.972;12.286;2022-08-05T01:31:54;100598.41;;;18.53;100.00
64827;BME280;51265;53.972;12.286;2022-08-05T01:34:30;100591.56;;;18.50;100.00
64827;BME280;51265;53.972;12.286;2022-08-05T01:39:26;100584.63;;;18.44;100.00
64827;BME280;51265;53.972;12.286;2022-08-05T01:41:55;100594.03;;;18.39;100.00
64827;BME280;51265;53.972;12.286;2022-08-05T01:44:23;100591.59;;;18.38;100.00
64827;BME280;51265;53.972;12.286;2022-08-05T01:46:52;100597.84;;;18.35;100.00
64827;BME280;51265;53.972;12.286;2022-08-05T01:49:21;100578.69;;;18.33;100.00
64827;BME280;51265;53.972;12.286;2022-08-05T01:51:49;100579.41;;;18.30;100.00
64827;BME280;51265;53.972;12.286;2022-08-05T01:54:18;100582.56;;;18.29;100.00
64827;BME280;51265;53.972;12.286;2022-08-05T01:56:46;100584.78;;;18.23;100.00
64827;BME280;51265;53.972;12.286;2022-08-05T01:59:16;100580.34;;;18.22;100.00
64827;BME280;51265;53.972;12.286;2022-08-05T02:01:46;100588.25;;;18.20;100.00
64827;BME280;51265;53.972;12.286;2022-08-05T02:04:15;100594.19;;;18.19;100.00
64827;BME280;51265;53.972;12.286;2022-08-05T02:06:43;100596.50;;;18.16;100.00
64827;BME280;51265;53.972;12.286;2022-08-05T02:09:15;100605.22;;;18.15;100.00
64827;BME280;51265;53.972;12.286;2022-08-05T02:11:46;100601.97;;;18.13;100.00
64827;BME280;51265;53.972;12.286;2022-08-05T02:14:18;100604.31;;;18.11;100.00
64827;BME280;51265;53.972;12.286;2022-08-05T02:16:53;100603.50;;;18.10;100.00
64827;BME280;51265;53.972;12.286;2022-08-05T02:24:50;100586.88;;;18.14;100.00
64827;BME280;51265;53.972;12.286;2022-08-05T02:27:18;100578.50;;;18.14;100.00
64827;BME280;51265;53.972;12.286;2022-08-05T02:29:47;100572.94;;;18.14;100.00
64827;BME280;51265;53.972;12.286;2022-08-05T02:32:16;100573.28;;;18.12;100.00
64827;BME280;51265;53.972;12.286;2022-08-05T02:34:44;100578.06;;;18.12;100.00
64827;BME280;51265;53.972;12.286;2022-08-05T02:37:11;100594.78;;;18.12;100.00
64827;BME280;51265;53.972;12.286;2022-08-05T02:39:39;100594.09;;;18.15;100.00
64827;BME280;51265;53.972;12.286;2022-08-05T02:42:07;100600.47;;;18.15;100.00
64827;BME280;51265;53.972;12.286;2022-08-05T02:44:35;100601.28;;;18.16;100.00
64827;BME280;51265;53.972;12.286;2022-08-05T02:47:04;100600.09;;;18.17;100.00
64827;BME280;51265;53.972;12.286;2022-08-05T02:49:37;100607.78;;;18.20;100.00
64827;BME280;51265;53.972;12.286;2022-08-05T02:52:13;100603.81;;;18.21;100.00
64827;BME280;51265;53.972;12.286;2022-08-05T02:54:41;100588.72;;;18.22;100.00
64827;BME280;51265;53.972;12.286;2022-08-05T02:57:13;100588.72;;;18.22;100.00
64827;BME280;51265;53.972;12.286;2022-08-05T02:59:41;100573.63;;;18.23;100.00
64827;BME280;51265;53.972;12.286;2022-08-05T03:02:12;100566.41;;;18.22;100.00
64827;BME280;51265;53.972;12.286;2022-08-05T03:04:39;100560.13;;;18.25;100.00
64827;BME280;51265;53.972;12.286;2022-08-05T03:07:07;100568.88;;;18.24;100.00
64827;BME280;51265;53.972;12.286;2022-08-05T03:09:35;100551.78;;;18.25;100.00
64827;BME280;51265;53.972;12.286;2022-08-05T03:12:02;100549.34;;;18.24;100.00
64827;BME280;51265;53.972;12.286;2022-08-05T03:14:28;100543.41;;;18.25;100.00
64827;BME280;51265;53.972;12.286;2022-08-05T03:16:54;100555.38;;;18.26;100.00
64827;BME280;51265;53.972;12.286;2022-08-05T03:19:20;100561.75;;;18.26;100.00
64827;BME280;51265;53.972;12.286;2022-08-05T03:21:46;100563.41;;;18.27;100.00
64827;BME280;51265;53.972;12.286;2022-08-05T03:24:12;100552.31;;;18.31;100.00
64827;BME280;51265;53.972;12.286;2022-08-05T03:26:38;100560.34;;;18.32;100.00
64827;BME280;51265;53.972;12.286;2022-08-05T03:29:04;100549.22;;;18.32;100.00
64827;BME280;51265;53.972;12.286;2022-08-05T03:31:32;100554.09;;;18.35;100.00
64827;BME280;51265;53.972;12.286;2022-08-05T03:33:58;100551.28;;;18.35;100.00
64827;BME280;51265;53.972;12.286;2022-08-05T03:36:24;100542.94;;;18.35;100.00
64827;BME280;51265;53.972;12.286;2022-08-05T03:38:51;100541.75;;;18.36;100.00
64827;BME280;51265;53.972;12.286;2022-08-05T03:41:17;100535.00;;;18.37;100.00
64827;BME280;51265;53.972;12.286;2022-08-05T03:43:43;100539.88;;;18.40;100.00
64827;BME280;51265;53.972;12.286;2022-08-05T03:46:09;100550.25;;;18.40;100.00
64827;BME280;51265;53.972;12.286;2022-08-05T03:48:35;100547.78;;;18.38;100.00
64827;BME280;51265;53.972;12.286;2022-08-05T03:51:18;100558.94;;;18.38;100.00
64827;BME280;51265;53.972;12.286;2022-08-05T03:56:27;100560.34;;;18.32;100.00
64827;BME280;51265;53.972;12.286;2022-08-05T03:58:59;100547.59;;;18.31;100.00
64827;BME280;51265;53.972;12.286;2022-08-05T04:01:27;100546.16;;;18.37;100.00
64827;BME280;51265;53.972;12.286;2022-08-05T04:03:57;100542.72;;;18.28;100.00
64827;BME280;51265;53.972;12.286;2022-08-05T04:06:24;100542.72;;;18.28;100.00
64827;BME280;51265;53.972;12.286;2022-08-05T04:08:51;100537.94;;;18.29;100.00
64827;BME280;51265;53.972;12.286;2022-08-05T04:11:18;100539.44;;;18.26;100.00
64827;BME280;51265;53.972;12.286;2022-08-05T04:13:44;100541.09;;;18.27;100.00
64827;BME280;51265;53.972;12.286;2022-08-05T04:16:12;100532.72;;;18.27;100.00
64827;BME280;51265;53.972;12.286;2022-08-05T04:18:38;100537.84;;;18.25;100.00
64827;BME280;51265;53.972;12.286;2022-08-05T04:21:05;100538.19;;;18.24;100.00
64827;BME280;51265;53.972;12.286;2022-08-05T04:23:33;100536.09;;;18.21;100.00
64827;BME280;51265;53.972;12.286;2022-08-05T04:26:01;100547.63;;;18.19;100.00
64827;BME280;51265;53.972;12.286;2022-08-05T04:28:28;100541.69;;;18.21;100.00
64827;BME280;51265;53.972;12.286;2022-08-05T04:30:54;100544.84;;;18.19;100.00
64827;BME280;51265;53.972;12.286;2022-08-05T04:33:20;100549.94;;;18.17;100.00
64827;BME280;51265;53.972;12.286;2022-08-05T04:35:46;100566.91;;;18.12;100.00
64827;BME280;51265;53.972;12.286;2022-08-05T04:38:12;100576.44;;;18.11;100.00
64827;BME280;51265;53.972;12.286;2022-08-05T04:40:39;100584.81;;;18.11;100.00
64827;BME280;51265;53.972;12.286;2022-08-05T04:43:06;100586.41;;;18.12;100.00
64827;BME280;51265;53.972;12.286;2022-08-05T04:45:32;100576.88;;;18.13;100.00
64827;BME280;51265;53.972;12.286;2022-08-05T04:50:41;100577.34;;;18.15;100.00
64827;BME280;51265;53.972;12.286;2022-08-05T04:53:08;100584.56;;;18.16;100.00
64827;BME280;51265;53.972;12.286;2022-08-05T04:55:36;100593.34;;;18.18;100.00
64827;BME280;51265;53.972;12.286;2022-08-05T04:58:03;100598.94;;;18.18;100.00
64827;BME280;51265;53.972;12.286;2022-08-05T05:00:32;100591.41;;;18.19;100.00
64827;BME280;51265;53.972;12.286;2022-08-05T05:02:58;100587.56;;;18.23;100.00
64827;BME280;51265;53.972;12.286;2022-08-05T05:05:24;100575.47;;;18.31;100.00
64827;BME280;51265;53.972;12.286;2022-08-05T05:07:50;100575.91;;;18.33;100.00
64827;BME280;51265;53.972;12.286;2022-08-05T05:10:16;100584.50;;;18.40;100.00
64827;BME280;51265;53.972;12.286;2022-08-05T05:12:42;100578.56;;;18.42;100.00
64827;BME280;51265;53.972;12.286;2022-08-05T05:15:09;100573.69;;;18.39;100.00
64827;BME280;51265;53.972;12.286;2022-08-05T05:17:39;100585.69;;;18.39;100.00
64827;BME280;51265;53.972;12.286;2022-08-05T05:20:06;100596.84;;;18.27;100.00
64827;BME280;51265;53.972;12.286;2022-08-05T05:22:33;100596.16;;;18.18;100.00
64827;BME280;51265;53.972;12.286;2022-08-05T05:24:59;100597.31;;;18.17;100.00
64827;BME280;51265;53.972;12.286;2022-08-05T05:27:30;100603.25;;;18.15;100.00
64827;BME280;51265;53.972;12.286;2022-08-05T05:29:56;100615.22;;;18.16;100.00
64827;BME280;51265;53.972;12.286;2022-08-05T05:32:22;100632.75;;;18.16;100.00
64827;BME280;51265;53.972;12.286;2022-08-05T05:34:48;100633.09;;;18.15;100.00
64827;BME280;51265;53.972;12.286;2022-08-05T05:37:14;100613.81;;;18.10;100.00
64827;BME280;51265;53.972;12.286;2022-08-05T05:40:06;100606.50;;;18.05;100.00
64827;BME280;51265;53.972;12.286;2022-08-05T05:42:42;100581.66;;;18.00;100.00
64827;BME280;51265;53.972;12.286;2022-08-05T05:45:15;100539.72;;;18.09;100.00
64827;BME280;51265;53.972;12.286;2022-08-05T05:47:43;100539.53;;;18.02;100.00
64827;BME280;51265;53.972;12.286;2022-08-05T05:50:12;100549.03;;;18.01;100.00
64827;BME280;51265;53.972;12.286;2022-08-05T05:52:38;100555.31;;;17.98;100.00
64827;BME280;51265;53.972;12.286;2022-08-05T05:55:29;100568.91;;;17.87;100.00
64827;BME280;51265;53.972;12.286;2022-08-05T05:57:55;100587.47;;;17.83;100.00
64827;BME280;51265;53.972;12.286;2022-08-05T06:00:21;100603.84;;;17.84;100.00
64827;BME280;51265;53.972;12.286;2022-08-05T06:02:47;100639.84;;;17.77;100.00
64827;BME280;51265;53.972;12.286;2022-08-05T06:05:15;100662.44;;;17.76;100.00
64827;BME280;51265;53.972;12.286;2022-08-05T06:07:42;100678.25;;;17.84;100.00
64827;BME280;51265;53.972;12.286;2022-08-05T06:10:09;100698.56;;;17.84;100.00
64827;BME280;51265;53.972;12.286;2022-08-05T06:12:36;100720.53;;;17.86;100.00
64827;BME280;51265;53.972;12.286;2022-08-05T06:15:04;100719.47;;;17.90;100.00
64827;BME280;51265;53.972;12.286;2022-08-05T06:17:31;100710.66;;;18.01;100.00
64827;BME280;51265;53.972;12.286;2022-08-05T06:19:57;100714.38;;;18.05;100.00
64827;BME280;51265;53.972;12.286;2022-08-05T06:22:26;100720.06;;;18.08;100.00
64827;BME280;51265;53.972;12.286;2022-08-05T06:24:52;100719.03;;;18.13;100.00
64827;BME280;51265;53.972;12.286;2022-08-05T06:27:18;100718.34;;;18.16;100.00
64827;BME280;51265;53.972;12.286;2022-08-05T06:29:46;100704.41;;;18.16;100.00
64827;BME280;51265;53.972;12.286;2022-08-05T06:32:13;100682.47;;;18.14;100.00
64827;BME280;51265;53.972;12.286;2022-08-05T06:34:40;100668.66;;;18.06;100.00
64827;BME280;51265;53.972;12.286;2022-08-05T06:37:06;100643.91;;;17.92;100.00
64827;BME280;51265;53.972;12.286;2022-08-05T06:39:32;100607.56;;;18.01;100.00
64827;BME280;51265;53.972;12.286;2022-08-05T06:42:00;100608.22;;;18.10;100.00
64827;BME280;51265;53.972;12.286;2022-08-05T06:44:29;100635.22;;;18.06;100.00
64827;BME280;51265;53.972;12.286;2022-08-05T06:46:56;100670.28;;;18.07;100.00
64827;BME280;51265;53.972;12.286;2022-08-05T06:49:23;100693.50;;;18.11;100.00
64827;BME280;51265;53.972;12.286;2022-08-05T06:51:49;100710.22;;;18.11;100.00
64827;BME280;51265;53.972;12.286;2022-08-05T06:54:15;100699.28;;;18.18;100.00
64827;BME280;51265;53.972;12.286;2022-08-05T06:56:43;100693.56;;;18.39;100.00
64827;BME280;51265;53.972;12.286;2022-08-05T06:59:09;100691.13;;;18.50;100.00
64827;BME280;51265;53.972;12.286;2022-08-05T07:01:40;100691.41;;;18.32;100.00
64827;BME280;51265;53.972;12.286;2022-08-05T07:04:06;100686.06;;;18.27;100.00
64827;BME280;51265;53.972;12.286;2022-08-05T07:06:33;100688.38;;;18.25;100.00
64827;BME280;51265;53.972;12.286;2022-08-05T07:08:59;100694.44;;;18.15;100.00
64827;BME280;51265;53.972;12.286;2022-08-05T07:11:26;100707.19;;;18.16;100.00
64827;BME280;51265;53.972;12.286;2022-08-05T07:13:53;100715.31;;;18.21;100.00
64827;BME280;51265;53.972;12.286;2022-08-05T07:16:38;100719.72;;;18.34;100.00
64827;BME280;51265;53.972;12.286;2022-08-05T07:19:17;100721.38;;;18.35;100.00
64827;BME280;51265;53.972;12.286;2022-08-05T07:21:48;100720.19;;;18.24;100.00
64827;BME280;51265;53.972;12.286;2022-08-05T07:24:16;100710.66;;;18.25;100.00
64827;BME280;51265;53.972;12.286;2022-08-05T07:26:43;100713.22;;;18.30;100.00
64827;BME280;51265;53.972;12.286;2022-08-05T07:29:10;100718.59;;;18.23;100.00
64827;BME280;51265;53.972;12.286;2022-08-05T07:31:36;100720.66;;;18.14;100.00
64827;BME280;51265;53.972;12.286;2022-08-05T07:34:03;100715.06;;;18.14;100.00
64827;BME280;51265;53.972;12.286;2022-08-05T07:36:29;100713.00;;;18.23;100.00
64827;BME280;51265;53.972;12.286;2022-08-05T07:38:55;100709.28;;;18.31;100.00
64827;BME280;51265;53.972;12.286;2022-08-05T07:41:23;100713.34;;;18.34;100.00
64827;BME280;51265;53.972;12.286;2022-08-05T07:43:50;100710.22;;;18.35;100.00
64827;BME280;51265;53.972;12.286;2022-08-05T07:46:17;100682.56;;;18.30;100.00
64827;BME280;51265;53.972;12.286;2022-08-05T07:48:43;100681.41;;;18.31;100.00
64827;BME280;51265;53.972;12.286;2022-08-05T07:51:09;100692.66;;;18.35;100.00
64827;BME280;51265;53.972;12.286;2022-08-05T07:53:35;100696.50;;;18.18;100.00
64827;BME280;51265;53.972;12.286;2022-08-05T07:56:04;100693.94;;;18.01;100.00
64827;BME280;51265;53.972;12.286;2022-08-05T07:58:30;100693.25;;;18.04;100.00
64827;BME280;51265;53.972;12.286;2022-08-05T08:00:56;100700.81;;;18.15;100.00
64827;BME280;51265;53.972;12.286;2022-08-05T08:03:22;100694.44;;;18.15;100.00
64827;BME280;51265;53.972;12.286;2022-08-05T08:05:49;100703.25;;;18.17;100.00
64827;BME280;51265;53.972;12.286;2022-08-05T08:08:18;100707.75;;;18.09;100.00
64827;BME280;51265;53.972;12.286;2022-08-05T08:10:44;100705.91;;;18.01;100.00
64827;BME280;51265;53.972;12.286;2022-08-05T08:13:10;100711.81;;;17.87;100.00
64827;BME280;51265;53.972;12.286;2022-08-05T08:15:36;100708.66;;;17.89;100.00
64827;BME280;51265;53.972;12.286;2022-08-05T08:18:02;100697.50;;;17.89;100.00
64827;BME280;51265;53.972;12.286;2022-08-05T08:20:28;100691.16;;;18.01;100.00
64827;BME280;51265;53.972;12.286;2022-08-05T08:22:57;100689.31;;;18.17;100.00
64827;BME280;51265;53.972;12.286;2022-08-05T08:25:25;100681.88;;;18.21;100.00
64827;BME280;51265;53.972;12.286;2022-08-05T08:27:51;100703.81;;;18.35;100.00
64827;BME280;51265;53.972;12.286;2022-08-05T08:30:17;100701.50;;;18.37;100.00
64827;BME280;51265;53.972;12.286;2022-08-05T08:32:47;100710.09;;;18.32;100.00
64827;BME280;51265;53.972;12.286;2022-08-05T08:35:13;100712.78;;;18.40;100.00
64827;BME280;51265;53.972;12.286;2022-08-05T08:37:39;100705.22;;;18.29;100.00
64827;BME280;51265;53.972;12.286;2022-08-05T08:40:05;100692.78;;;18.38;100.00
64827;BME280;51265;53.972;12.286;2022-08-05T08:42:31;100700.88;;;18.56;100.00
64827;BME280;51265;53.972;12.286;2022-08-05T08:44:58;100701.13;;;18.51;100.00
64827;BME280;51265;53.972;12.286;2022-08-05T08:47:26;100691.69;;;18.55;100.00
64827;BME280;51265;53.972;12.286;2022-08-05T08:49:55;100693.91;;;18.74;100.00
64827;BME280;51265;53.972;12.286;2022-08-05T08:52:28;100686.47;;;18.66;100.00
64827;BME280;51265;53.972;12.286;2022-08-05T08:54:56;100685.44;;;18.58;100.00
64827;BME280;51265;53.972;12.286;2022-08-05T08:57:23;100693.44;;;18.72;100.00
64827;BME280;51265;53.972;12.286;2022-08-05T08:59:49;100687.38;;;18.82;100.00
64827;BME280;51265;53.972;12.286;2022-08-05T09:02:18;100677.16;;;19.14;100.00
64827;BME280;51265;53.972;12.286;2022-08-05T09:04:46;100687.56;;;19.30;100.00
64827;BME280;51265;53.972;12.286;2022-08-05T09:07:12;100687.28;;;19.35;100.00
64827;BME280;51265;53.972;12.286;2022-08-05T09:09:38;100692.44;;;19.61;100.00
64827;BME280;51265;53.972;12.286;2022-08-05T09:12:07;100698.38;;;19.75;100.00
64827;BME280;51265;53.972;12.286;2022-08-05T09:14:34;100703.38;;;19.26;100.00
64827;BME280;51265;53.972;12.286;2022-08-05T09:17:02;100704.28;;;19.02;100.00
64827;BME280;51265;53.972;12.286;2022-08-05T09:19:28;100693.09;;;18.86;100.00
64827;BME280;51265;53.972;12.286;2022-08-05T09:21:54;100694.34;;;18.88;100.00
64827;BME280;51265;53.972;12.286;2022-08-05T09:24:20;100693.00;;;18.70;100.00
64827;BME280;51265;53.972;12.286;2022-08-05T09:26:49;100694.03;;;18.78;100.00
64827;BME280;51265;53.972;12.286;2022-08-05T09:32:06;100705.06;;;18.62;100.00
64827;BME280;51265;53.972;12.286;2022-08-05T09:34:53;100717.84;;;18.51;100.00
64827;BME280;51265;53.972;12.286;2022-08-05T09:37:22;100719.72;;;18.34;100.00
64827;BME280;51265;53.972;12.286;2022-08-05T09:39:48;100736.44;;;18.10;100.00
64827;BME280;51265;53.972;12.286;2022-08-05T09:42:19;100745.38;;;17.91;100.00
64827;BME280;51265;53.972;12.286;2022-08-05T09:44:48;100741.25;;;17.76;100.00
64827;BME280;51265;53.972;12.286;2022-08-05T09:47:22;100746.88;;;17.67;100.00
64827;BME280;51265;53.972;12.286;2022-08-05T09:49:53;100751.47;;;17.51;100.00
64827;BME280;51265;53.972;12.286;2022-08-05T09:52:29;100756.47;;;17.46;100.00
64827;BME280;51265;53.972;12.286;2022-08-05T09:54:57;100764.34;;;17.43;100.00
64827;BME280;51265;53.972;12.286;2022-08-05T09:57:41;100751.56;;;17.42;100.00
64827;BME280;51265;53.972;12.286;2022-08-05T10:00:18;100751.56;;;17.42;100.00
64827;BME280;51265;53.972;12.286;2022-08-05T10:02:46;100742.75;;;17.40;100.00
64827;BME280;51265;53.972;12.286;2022-08-05T10:05:18;100732.56;;;17.45;100.00
64827;BME280;51265;53.972;12.286;2022-08-05T10:10:21;100734.19;;;17.46;100.00
64827;BME280;51265;53.972;12.286;2022-08-05T10:12:53;100717.69;;;17.40;100.00
64827;BME280;51265;53.972;12.286;2022-08-05T10:15:22;100718.25;;;17.34;100.00
64827;BME280;51265;53.972;12.286;2022-08-05T10:18:10;100704.63;;;17.20;100.00
64827;BME280;51265;53.972;12.286;2022-08-05T10:23:30;100706.25;;;17.21;100.00
64827;BME280;51265;53.972;12.286;2022-08-05T10:26:00;100710.47;;;17.27;100.00
64827;BME280;51265;53.972;12.286;2022-08-05T10:28:27;100717.13;;;17.14;100.00
64827;BME280;51265;53.972;12.286;2022-08-05T10:30:54;100724.19;;;17.11;100.00
64827;BME280;51265;53.972;12.286;2022-08-05T10:33:21;100713.28;;;17.06;100.00
64827;BME280;51265;53.972;12.286;2022-08-05T10:35:51;100716.88;;;17.07;100.00
64827;BME280;51265;53.972;12.286;2022-08-05T10:38:20;100730.41;;;17.08;100.00
64827;BME280;51265;53.972;12.286;2022-08-05T10:46:13;100706.97;;;16.97;100.00
64827;BME280;51265;53.972;12.286;2022-08-05T10:48:41;100710.06;;;16.96;100.00
64827;BME280;51265;53.972;12.286;2022-08-05T10:51:13;100712.63;;;17.01;100.00
64827;BME280;51265;53.972;12.286;2022-08-05T10:53:58;100713.72;;;17.08;100.00
64827;BME280;51265;53.972;12.286;2022-08-05T10:56:27;100707.28;;;16.96;100.00
64827;BME280;51265;53.972;12.286;2022-08-05T11:01:37;100711.84;;;16.79;100.00
64827;BME280;51265;53.972;12.286;2022-08-05T11:04:21;100714.41;;;16.84;100.00
64827;BME280;51265;53.972;12.286;2022-08-05T11:09:24;100708.44;;;16.95;100.00
64827;BME280;51265;53.972;12.286;2022-08-05T11:11:52;100708.97;;;17.09;100.00
64827;BME280;51265;53.972;12.286;2022-08-05T11:14:27;100710.19;;;17.20;100.00
64827;BME280;51265;53.972;12.286;2022-08-05T11:17:36;100703.81;;;17.20;100.00
64827;BME280;51265;53.972;12.286;2022-08-05T11:20:04;100710.31;;;17.24;100.00
64827;BME280;51265;53.972;12.286;2022-08-05T11:22:39;100728.09;;;17.31;100.00
64827;BME280;51265;53.972;12.286;2022-08-05T11:25:30;100743.88;;;17.27;100.00
64827;BME280;51265;53.972;12.286;2022-08-05T11:36:05;100738.00;;;17.41;100.00
64827;BME280;51265;53.972;12.286;2022-08-05T11:41:05;100747.66;;;17.43;100.00
64827;BME280;51265;53.972;12.286;2022-08-05T11:43:32;100743.44;;;17.37;100.00
64827;BME280;51265;53.972;12.286;2022-08-05T11:45:59;100742.13;;;17.56;100.00
64827;BME280;51265;53.972;12.286;2022-08-05T11:48:26;100749.34;;;17.69;100.00
64827;BME280;51265;53.972;12.286;2022-08-05T11:50:53;100753.72;;;17.58;100.00
64827;BME280;51265;53.972;12.286;2022-08-05T11:53:20;100741.06;;;17.81;100.00
64827;BME280;51265;53.972;12.286;2022-08-05T11:55:56;100741.09;;;17.94;100.00
64827;BME280;51265;53.972;12.286;2022-08-05T11:58:37;100749.00;;;18.28;100.00
64827;BME280;51265;53.972;12.286;2022-08-05T12:01:18;100754.56;;;18.04;100.00
64827;BME280;51265;53.972;12.286;2022-08-05T12:06:16;100744.50;;;18.36;100.00
64827;BME280;51265;53.972;12.286;2022-08-05T12:11:29;100738.31;;;18.18;100.00
64827;BME280;51265;53.972;12.286;2022-08-05T12:14:04;100746.66;;;17.94;100.00
64827;BME280;51265;53.972;12.286;2022-08-05T12:16:32;100766.72;;;17.87;100.00
64827;BME280;51265;53.972;12.286;2022-08-05T12:18:59;100768.81;;;17.57;100.00
64827;BME280;51265;53.972;12.286;2022-08-05T12:24:05;100769.81;;;17.19;100.00
64827;BME280;51265;53.972;12.286;2022-08-05T12:26:37;100768.44;;;17.25;100.00
64827;BME280;51265;53.972;12.286;2022-08-05T12:29:05;100773.09;;;17.33;100.00
64827;BME280;51265;53.972;12.286;2022-08-05T12:31:33;100771.53;;;17.45;100.00
64827;BME280;51265;53.972;12.286;2022-08-05T12:34:07;100778.88;;;17.49;100.00
64827;BME280;51265;53.972;12.286;2022-08-05T12:36:34;100779.41;;;17.42;100.00
64827;BME280;51265;53.972;12.286;2022-08-05T12:39:03;100786.81;;;17.38;100.00
64827;BME280;51265;53.972;12.286;2022-08-05T12:41:35;100795.31;;;17.21;100.00
64827;BME280;51265;53.972;12.286;2022-08-05T12:44:12;100799.66;;;17.10;100.00
64827;BME280;51265;53.972;12.286;2022-08-05T12:46:40;100808.75;;;16.98;100.00
64827;BME280;51265;53.972;12.286;2022-08-05T12:49:10;100811.44;;;16.86;100.00
64827;BME280;51265;53.972;12.286;2022-08-05T12:51:56;100824.25;;;16.78;100.00
64827;BME280;51265;53.972;12.286;2022-08-05T12:54:27;100830.16;;;16.77;100.00
64827;BME280;51265;53.972;12.286;2022-08-05T12:56:58;100831.78;;;16.69;100.00
64827;BME280;51265;53.972;12.286;2022-08-05T12:59:27;100838.38;;;16.64;100.00
64827;BME280;51265;53.972;12.286;2022-08-05T13:04:27;100828.88;;;16.65;100.00
64827;BME280;51265;53.972;12.286;2022-08-05T13:06:56;100838.53;;;16.59;100.00
64827;BME280;51265;53.972;12.286;2022-08-05T13:09:23;100837.44;;;16.52;100.00
64827;BME280;51265;53.972;12.286;2022-08-05T13:11:49;100851.03;;;16.44;100.00
64827;BME280;51265;53.972;12.286;2022-08-05T13:14:21;100855.88;;;16.18;100.00
64827;BME280;51265;53.972;12.286;2022-08-05T13:16:54;100855.56;;;16.11;100.00
64827;BME280;51265;53.972;12.286;2022-08-05T13:19:22;100866.84;;;16.06;100.00
64827;BME280;51265;53.972;12.286;2022-08-05T13:21:49;100873.88;;;15.94;100.00
64827;BME280;51265;53.972;12.286;2022-08-05T13:24:16;100873.09;;;15.85;100.00
64827;BME280;51265;53.972;12.286;2022-08-05T13:26:44;100878.16;;;15.66;100.00
64827;BME280;51265;53.972;12.286;2022-08-05T13:29:11;100887.44;;;15.70;100.00
64827;BME280;51265;53.972;12.286;2022-08-05T13:31:37;100886.47;;;15.66;100.00
64827;BME280;51265;53.972;12.286;2022-08-05T13:34:03;100889.06;;;15.62;100.00
64827;BME280;51265;53.972;12.286;2022-08-05T13:36:30;100890.03;;;15.58;100.00